Flight Track Log - Related Links

Times and Time Zones

All times are in EDT time to prevent confusion due to time zone crossing. See the SWA2236 flight status page for this flight to view local times or setup timezone preferences in your user account.

Time Position Orientation Groundspeed Altitude Reporting Facility
EDT Latitude Longitude Course Direction KTS MPH feet Rate Location/Type
Fri 07:36:02 PM 30.5131 -81.6364 78° East 167 192 1,800  Level Jacksonville Center
Fri 07:37:02 PM 30.5711 -81.6139 18° North 263 303 3,300 2,500 Climbing Jacksonville Center
Fri 07:38:02 PM 30.6486 -81.6250 353° North 272 313 6,800 3,650 Climbing Jacksonville Center
Fri 07:39:02 PM 30.7217 -81.6286 358° North 298 343 10,600 3,150 Climbing Jacksonville Center
Fri 07:40:02 PM 30.8072 -81.6156 North 304 350 13,100 2,850 Climbing Jacksonville Center
Fri 07:41:02 PM 30.9050 -81.5850 15° North 324 373 16,300 3,050 Climbing Jacksonville Center
Fri 07:42:02 PM 31.0047 -81.5522 16° North 348 400 19,200 2,600 Climbing Jacksonville Center
Fri 07:43:02 PM 31.1069 -81.5242 13° North 370 426 21,500 2,250 Climbing Jacksonville Center
Fri 07:44:02 PM 31.2172 -81.4908 14° North 396 456 23,700 2,000 Climbing Jacksonville Center
Fri 07:45:02 PM 31.3275 -81.4578 14° North 401 461 25,500 1,700 Climbing Jacksonville Center
Fri 07:46:02 PM 31.4336 -81.4194 17° North 425 489 27,100 1,800 Climbing Jacksonville Center
Fri 07:47:02 PM 31.5644 -81.3808 14° North 432 497 29,100 2,200 Climbing Jacksonville Center
Fri 07:48:02 PM 31.6811 -81.3447 15° North 432 497 31,500 2,050 Climbing Jacksonville Center
Fri 07:49:02 PM 31.7975 -81.3086 15° North 427 491 33,200 1,250 Climbing Jacksonville Center
Fri 07:50:02 PM 31.9181 -81.2697 15° North 440 506 34,000 850 Climbing Jacksonville Center
Fri 07:51:02 PM 32.0428 -81.2308 15° North 460 529 34,900 850 Climbing Jacksonville Center
Fri 07:52:02 PM 32.1694 -81.1672 23° Northeast 480 552 35,700 1,150 Climbing Jacksonville Center
Fri 07:53:02 PM 32.2469 -81.0478 52° Northeast 480 552 37,200 1,550 Climbing Jacksonville Center
Fri 07:54:02 PM 32.3369 -80.9108 52° Northeast 485 558 38,800 900 Climbing Jacksonville Center
Fri 07:55:02 PM 32.4183 -80.7858 52° Northeast 478 550 39,000 100 Climbing Jacksonville Center
Fri 07:56:02 PM 32.5125 -80.6753 45° Northeast 467 537 39,000  Level Jacksonville Center
Fri 07:57:02 PM 32.6303 -80.6033 27° Northeast 467 537 39,000  Level Jacksonville Center
Fri 07:58:02 PM 32.7500 -80.5289 28° Northeast 474 545 39,000  Level Jacksonville Center
Fri 07:59:02 PM 32.8656 -80.4589 27° Northeast 469 540 39,000  Level Jacksonville Center
Fri 08:00:02 PM 32.9911 -80.3789 28° Northeast 469 540 39,000  Level Jacksonville Center
Fri 08:01:02 PM 33.1086 -80.3011 29° Northeast 481 554 39,000  Level Jacksonville Center
Fri 08:02:02 PM 33.2344 -80.2281 26° Northeast 475 547 39,000  Level Jacksonville Center
Fri 08:03:02 PM 33.3517 -80.1522 28° Northeast 480 552 39,000  Level Jacksonville Center
Fri 08:04:02 PM 33.4689 -80.0739 29° Northeast 480 552 39,000  Level Jacksonville Center
Fri 08:05:02 PM 33.5883 -79.9956 29° Northeast 480 552 39,000  Level Jacksonville Center
Fri 08:06:02 PM 33.7117 -79.9164 28° Northeast 480 552 39,000  Level Jacksonville Center
Fri 08:07:02 PM 33.8308 -79.8375 29° Northeast 485 558 39,000  Level Jacksonville Center
Fri 08:08:02 PM 33.9497 -79.7608 28° Northeast 485 558 39,000  Level Jacksonville Center
Fri 08:09:02 PM 34.0689 -79.6814 29° Northeast 485 558 39,000  Level Jacksonville Center
Fri 08:10:48 PM 34.2628 -79.5544 28° Northeast 485 558 39,000  Level Washington Center
Fri 08:11:49 PM 34.3822 -79.4722 30° Northeast 491 565 39,000  Level Washington Center
Fri 08:12:49 PM 34.5036 -79.3972 27° Northeast 491 565 39,000  Level Washington Center
Fri 08:13:47 PM 34.6231 -79.3119 30° Northeast 491 565 39,000  Level Washington Center
Fri 08:14:48 PM 34.7464 -79.2342 27° Northeast 491 565 39,000  Level Washington Center
Fri 08:15:49 PM 34.8678 -79.1561 28° Northeast 491 565 39,000  Level Washington Center
Fri 08:16:47 PM 34.9892 -79.0753 29° Northeast 491 565 39,000  Level Washington Center
Fri 08:17:48 PM 35.1106 -78.9917 29° Northeast 491 565 39,000  Level Washington Center
Fri 08:18:49 PM 35.2317 -78.9103 29° Northeast 491 565 39,000  Level Washington Center
Fri 08:19:49 PM 35.3550 -78.8289 28° Northeast 491 565 39,000  Level Washington Center
Fri 08:20:47 PM 35.4867 -78.7347 30° Northeast 497 572 39,000  Level Washington Center
Fri 08:21:48 PM 35.6139 -78.6581 26° Northeast 504 580 39,000  Level Washington Center
Fri 08:22:48 PM 35.7392 -78.5706 30° Northeast 510 587 39,000  Level Washington Center
Fri 08:23:48 PM 35.8583 -78.4856 30° Northeast 504 580 39,000 -50 Level Washington Center
Fri 08:24:49 PM 35.9792 -78.4000 30° Northeast 498 573 38,900 -1,240 Descending Washington Center
Fri 08:25:49 PM 36.0978 -78.3194 29° Northeast 492 566 36,500 -2,727 Descending Washington Center
Fri 08:26:50 PM 36.2208 -78.2336 29° Northeast 492 566 33,400 -3,051 Descending Washington Center
Fri 08:27:47 PM 36.3436 -78.1475 29° Northeast 492 566 30,500 -2,237 Descending Washington Center
Fri 08:28:48 PM 36.4667 -78.0611 29° Northeast 492 566 29,000 -1,000 Descending Washington Center
Fri 08:29:47 PM 36.5872 -77.9769 29° Northeast 492 566 28,500 -645 Descending Washington Center
Fri 08:30:49 PM 36.6908 -77.8997 31° Northeast 492 566 27,700 -1,328 Descending Washington Center
Fri 08:31:49 PM 36.8156 -77.8206 27° Northeast 487 560 25,800 -2,237 Descending Washington Center
Fri 08:32:47 PM 36.9519 -77.7750 15° North 475 547 23,300 -1,424 Descending Washington Center
Fri 08:33:47 PM 37.0614 -77.7236 21° North 470 541 23,000 -148 Descending Washington Center
Fri 08:34:49 PM 37.1917 -77.6644 20° North 461 531 23,000 -390 Level Washington Center
Fri 08:35:50 PM 37.3011 -77.6178 19° North 456 525 22,200 -1,000 Descending Washington Center
Fri 08:36:49 PM 37.4269 -77.5636 19° North 445 512 21,000 -615 Descending Washington Center
Fri 08:37:47 PM 37.5278 -77.5192 19° North 425 489 21,000  Level Washington Center
Fri 08:38:48 PM 37.6456 -77.4644 20° North 419 482 21,000  Level Washington Center
Fri 08:39:49 PM 37.7422 -77.4222 19° North 405 466 21,000  Level Washington Center
Fri 08:40:49 PM 37.8639 -77.3672 20° North 405 466 21,000  Level Washington Center
Fri 08:41:50 PM 37.9711 -77.3172 20° North 405 466 21,000  Level Washington Center
Fri 08:42:47 PM 38.0697 -77.2797 17° North 410 472 21,000 -814 Level Washington Center
Fri 08:43:48 PM 38.1744 -77.2319 20° North 410 472 19,400 -1,820 Descending Washington Center
Fri 08:44:49 PM 38.2817 -77.1842 19° North 405 466 17,300 -2,168 Descending Washington Center
Fri 08:45:47 PM 38.3803 -77.1358 21° North 394 453 15,100 -1,831 Descending Washington Center
Fri 08:46:47 PM 38.4564 -77.0500 41° Northeast 366 421 13,700 -1,537 Descending Washington Center
Fri 08:47:48 PM 38.5261 -76.9636 44° Northeast 355 409 12,000 -1,475 Descending Washington Center
Fri 08:48:49 PM 38.5981 -76.8775 43° Northeast 349 402 10,700 -992 Descending Washington Center
Fri 08:49:49 PM 38.6656 -76.7961 43° Northeast 335 386 10,000 -850 Descending Washington Center
Fri 08:50:49 PM 38.7183 -76.7172 49° Northeast 312 359 9,000 -1,169 Descending Washington Center
Fri 08:51:47 PM 38.7567 -76.6272 61° Northeast 291 335 7,700 -1,353 Descending Washington Center
Fri 08:53:02 PM 38.8333 -76.5333 44° Northeast 280 322 6,000 -1,256 Descending Potomac TRACON
Fri 08:53:56 PM 38.9000 -76.5500 349° North 271 312 5,000 -1,158 Descending Potomac TRACON
Fri 08:54:56 PM 38.9667 -76.5500 360° North 257 296 3,800 -900 Descending Potomac TRACON
Fri 08:55:56 PM 39.0333 -76.5500 360° North 223 257 3,200 -850 Descending Potomac TRACON
Fri 08:56:56 PM 39.0833 -76.5833 333° Northwest 202 232 2,100 -992 Descending Potomac TRACON
Fri 08:57:57 PM 39.1167 -76.6167 322° Northwest 146 168 1,200 -793 Descending Potomac TRACON
Fri 08:58:57 PM 39.1500 -76.6500 322° Northwest 126 145 500 -700 Descending Potomac TRACON
Fri 09:00:00 PM 39.1667 -76.6667 339° North  Level FlightAware Approximate
Fri 09:07:00 PM 39.1754 -76.6683 339° North  Level Estimated
Fri 09:08:00 PM 39.1754 -76.6683 339° North  Level Estimated
Fri 09:09:00 PM 39.1754 -76.6683 339° North  Level Estimated
Fri 09:10:00 PM 39.1754 -76.6683 339° North  Level Estimated
Fri 09:11:00 PM 39.1754 -76.6683 339° North  Level Estimated
Fri 09:12:00 PM 39.1754 -76.6683 339° North  Level Estimated
Fri 09:13:00 PM 39.1754 -76.6683 339° North  Level Estimated
Fri 09:14:00 PM 39.1754 -76.6683 339° North  Level Estimated

Login

Don't have an account? Register now (free) for customized features, flight alerts, and more!